sensor_id;sensor_type;location;lat;lon;timestamp;P1;durP1;ratioP1;P2;durP2;ratioP2
55288;SDS011;41154;45.394;5.734;2024-02-23T00:02:19;3.05;;;1.40;;
55288;SDS011;41154;45.394;5.734;2024-02-23T00:04:45;2.30;;;1.58;;
55288;SDS011;41154;45.394;5.734;2024-02-23T00:07:11;1.85;;;1.00;;
55288;SDS011;41154;45.394;5.734;2024-02-23T00:09:37;1.95;;;1.08;;
55288;SDS011;41154;45.394;5.734;2024-02-23T00:12:03;1.58;;;0.88;;
55288;SDS011;41154;45.394;5.734;2024-02-23T00:14:29;2.38;;;0.82;;
55288;SDS011;41154;45.394;5.734;2024-02-23T00:17:02;2.40;;;0.80;;
55288;SDS011;41154;45.394;5.734;2024-02-23T00:19:29;1.55;;;0.82;;
55288;SDS011;41154;45.394;5.734;2024-02-23T00:21:56;1.73;;;0.90;;
55288;SDS011;41154;45.394;5.734;2024-02-23T00:24:27;0.90;;;0.68;;
55288;SDS011;41154;45.394;5.734;2024-02-23T00:26:54;0.90;;;0.50;;
55288;SDS011;41154;45.394;5.734;2024-02-23T00:29:20;1.45;;;0.70;;
55288;SDS011;41154;45.394;5.734;2024-02-23T00:31:47;1.88;;;0.50;;
55288;SDS011;41154;45.394;5.734;2024-02-23T00:34:13;3.92;;;1.33;;
55288;SDS011;41154;45.394;5.734;2024-02-23T00:36:40;8.60;;;2.90;;
55288;SDS011;41154;45.394;5.734;2024-02-23T00:39:06;2.78;;;1.52;;
55288;SDS011;41154;45.394;5.734;2024-02-23T00:41:33;2.08;;;0.82;;
55288;SDS011;41154;45.394;5.734;2024-02-23T00:44:02;1.50;;;0.60;;
55288;SDS011;41154;45.394;5.734;2024-02-23T00:46:28;0.88;;;0.20;;
55288;SDS011;41154;45.394;5.734;2024-02-23T00:48:54;0.85;;;0.60;;
55288;SDS011;41154;45.394;5.734;2024-02-23T00:51:20;5.80;;;1.15;;
55288;SDS011;41154;45.394;5.734;2024-02-23T00:53:46;4.70;;;1.60;;
55288;SDS011;41154;45.394;5.734;2024-02-23T00:56:12;1.35;;;0.52;;
55288;SDS011;41154;45.394;5.734;2024-02-23T00:58:38;2.88;;;1.08;;
55288;SDS011;41154;45.394;5.734;2024-02-23T01:01:04;2.38;;;1.10;;
55288;SDS011;41154;45.394;5.734;2024-02-23T01:03:30;4.38;;;1.42;;
55288;SDS011;41154;45.394;5.734;2024-02-23T01:05:55;4.43;;;1.27;;
55288;SDS011;41154;45.394;5.734;2024-02-23T01:08:21;5.38;;;1.15;;
55288;SDS011;41154;45.394;5.734;2024-02-23T01:10:47;0.50;;;0.30;;
55288;SDS011;41154;45.394;5.734;2024-02-23T01:13:13;2.22;;;0.40;;
55288;SDS011;41154;45.394;5.734;2024-02-23T01:15:38;5.95;;;1.48;;
55288;SDS011;41154;45.394;5.734;2024-02-23T01:18:05;6.90;;;1.33;;
55288;SDS011;41154;45.394;5.734;2024-02-23T01:20:33;0.80;;;0.50;;
55288;SDS011;41154;45.394;5.734;2024-02-23T01:23:00;0.35;;;0.30;;
55288;SDS011;41154;45.394;5.734;2024-02-23T01:25:26;1.20;;;0.60;;
55288;SDS011;41154;45.394;5.734;2024-02-23T01:27:52;1.42;;;0.40;;
55288;SDS011;41154;45.394;5.734;2024-02-23T01:30:18;2.28;;;0.30;;
55288;SDS011;41154;45.394;5.734;2024-02-23T01:32:45;1.80;;;0.30;;
55288;SDS011;41154;45.394;5.734;2024-02-23T01:35:11;0.22;;;0.10;;
55288;SDS011;41154;45.394;5.734;2024-02-23T01:37:37;0.75;;;0.20;;
55288;SDS011;41154;45.394;5.734;2024-02-23T01:40:03;0.20;;;0.20;;
55288;SDS011;41154;45.394;5.734;2024-02-23T01:42:29;0.75;;;0.30;;
55288;SDS011;41154;45.394;5.734;2024-02-23T01:44:54;2.30;;;0.40;;
55288;SDS011;41154;45.394;5.734;2024-02-23T01:47:23;2.75;;;0.50;;
55288;SDS011;41154;45.394;5.734;2024-02-23T01:49:51;4.22;;;0.90;;
55288;SDS011;41154;45.394;5.734;2024-02-23T01:52:17;0.73;;;0.38;;
55288;SDS011;41154;45.394;5.734;2024-02-23T01:54:44;1.73;;;0.47;;
55288;SDS011;41154;45.394;5.734;2024-02-23T01:57:09;1.35;;;0.30;;
55288;SDS011;41154;45.394;5.734;2024-02-23T01:59:36;1.73;;;0.40;;
55288;SDS011;41154;45.394;5.734;2024-02-23T02:02:04;1.83;;;0.47;;
55288;SDS011;41154;45.394;5.734;2024-02-23T02:04:30;2.38;;;0.30;;
55288;SDS011;41154;45.394;5.734;2024-02-23T02:06:57;1.45;;;0.43;;
55288;SDS011;41154;45.394;5.734;2024-02-23T02:09:24;1.25;;;0.43;;
55288;SDS011;41154;45.394;5.734;2024-02-23T02:11:51;1.35;;;0.45;;
55288;SDS011;41154;45.394;5.734;2024-02-23T02:14:17;2.13;;;0.30;;
55288;SDS011;41154;45.394;5.734;2024-02-23T02:16:43;1.20;;;0.35;;
55288;SDS011;41154;45.394;5.734;2024-02-23T02:19:09;3.45;;;0.32;;
55288;SDS011;41154;45.394;5.734;2024-02-23T02:21:36;3.15;;;0.50;;
55288;SDS011;41154;45.394;5.734;2024-02-23T02:24:04;4.55;;;0.80;;
55288;SDS011;41154;45.394;5.734;2024-02-23T02:26:30;2.92;;;0.70;;
55288;SDS011;41154;45.394;5.734;2024-02-23T02:28:56;2.88;;;0.75;;
55288;SDS011;41154;45.394;5.734;2024-02-23T02:31:22;2.70;;;0.40;;
55288;SDS011;41154;45.394;5.734;2024-02-23T02:33:48;8.10;;;1.85;;
55288;SDS011;41154;45.394;5.734;2024-02-23T02:36:13;4.00;;;0.98;;
55288;SDS011;41154;45.394;5.734;2024-02-23T02:38:39;8.25;;;1.10;;
55288;SDS011;41154;45.394;5.734;2024-02-23T02:41:05;2.10;;;1.05;;
55288;SDS011;41154;45.394;5.734;2024-02-23T02:43:31;5.20;;;1.90;;
55288;SDS011;41154;45.394;5.734;2024-02-23T02:45:57;9.48;;;2.42;;
55288;SDS011;41154;45.394;5.734;2024-02-23T02:48:23;8.20;;;2.65;;
55288;SDS011;41154;45.394;5.734;2024-02-23T02:50:50;3.70;;;0.50;;
55288;SDS011;41154;45.394;5.734;2024-02-23T02:53:16;5.70;;;1.33;;
55288;SDS011;41154;45.394;5.734;2024-02-23T02:55:42;2.95;;;0.55;;
55288;SDS011;41154;45.394;5.734;2024-02-23T02:58:09;3.40;;;0.65;;
55288;SDS011;41154;45.394;5.734;2024-02-23T03:00:38;3.35;;;0.30;;
55288;SDS011;41154;45.394;5.734;2024-02-23T03:03:04;2.50;;;0.50;;
55288;SDS011;41154;45.394;5.734;2024-02-23T03:05:29;5.72;;;0.77;;
55288;SDS011;41154;45.394;5.734;2024-02-23T03:07:55;2.60;;;0.50;;
55288;SDS011;41154;45.394;5.734;2024-02-23T03:10:21;2.13;;;0.63;;
55288;SDS011;41154;45.394;5.734;2024-02-23T03:12:47;3.63;;;0.50;;
55288;SDS011;41154;45.394;5.734;2024-02-23T03:15:12;0.70;;;0.40;;
55288;SDS011;41154;45.394;5.734;2024-02-23T03:17:38;3.22;;;0.80;;
55288;SDS011;41154;45.394;5.734;2024-02-23T03:20:04;8.65;;;1.95;;
55288;SDS011;41154;45.394;5.734;2024-02-23T03:22:31;17.02;;;5.20;;
55288;SDS011;41154;45.394;5.734;2024-02-23T03:24:57;3.15;;;1.13;;
55288;SDS011;41154;45.394;5.734;2024-02-23T03:27:27;8.85;;;1.58;;
55288;SDS011;41154;45.394;5.734;2024-02-23T03:29:57;5.57;;;1.77;;
55288;SDS011;41154;45.394;5.734;2024-02-23T03:32:23;5.05;;;1.33;;
55288;SDS011;41154;45.394;5.734;2024-02-23T03:34:48;3.42;;;1.00;;
55288;SDS011;41154;45.394;5.734;2024-02-23T03:37:14;1.70;;;0.80;;
55288;SDS011;41154;45.394;5.734;2024-02-23T03:39:40;3.72;;;0.80;;
55288;SDS011;41154;45.394;5.734;2024-02-23T03:42:05;1.70;;;0.70;;
55288;SDS011;41154;45.394;5.734;2024-02-23T03:44:31;1.17;;;0.73;;
55288;SDS011;41154;45.394;5.734;2024-02-23T03:46:57;1.48;;;0.70;;
55288;SDS011;41154;45.394;5.734;2024-02-23T03:49:22;2.65;;;0.45;;
55288;SDS011;41154;45.394;5.734;2024-02-23T03:51:48;1.67;;;0.55;;
55288;SDS011;41154;45.394;5.734;2024-02-23T03:57:24;1.55;;;0.82;;
55288;SDS011;41154;45.394;5.734;2024-02-23T03:59:53;4.05;;;1.42;;
55288;SDS011;41154;45.394;5.734;2024-02-23T04:02:20;6.88;;;1.40;;
55288;SDS011;41154;45.394;5.734;2024-02-23T04:04:46;4.78;;;2.75;;
55288;SDS011;41154;45.394;5.734;2024-02-23T04:07:12;7.38;;;2.88;;
55288;SDS011;41154;45.394;5.734;2024-02-23T04:09:38;7.07;;;2.88;;
55288;SDS011;41154;45.394;5.734;2024-02-23T04:12:04;6.75;;;2.05;;
55288;SDS011;41154;45.394;5.734;2024-02-23T04:14:49;4.28;;;1.98;;
55288;SDS011;41154;45.394;5.734;2024-02-23T04:21:02;4.75;;;1.92;;
55288;SDS011;41154;45.394;5.734;2024-02-23T04:23:28;3.75;;;1.52;;
55288;SDS011;41154;45.394;5.734;2024-02-23T04:25:54;4.70;;;1.83;;
55288;SDS011;41154;45.394;5.734;2024-02-23T04:28:20;4.65;;;1.63;;
55288;SDS011;41154;45.394;5.734;2024-02-23T04:34:32;3.05;;;1.80;;
55288;SDS011;41154;45.394;5.734;2024-02-23T04:36:59;3.65;;;1.73;;
55288;SDS011;41154;45.394;5.734;2024-02-23T04:39:25;3.38;;;1.92;;
55288;SDS011;41154;45.394;5.734;2024-02-23T04:41:51;5.25;;;1.95;;
55288;SDS011;41154;45.394;5.734;2024-02-23T04:44:16;4.68;;;1.40;;
55288;SDS011;41154;45.394;5.734;2024-02-23T04:47:01;4.65;;;1.52;;
55288;SDS011;41154;45.394;5.734;2024-02-23T04:49:27;7.30;;;1.85;;
55288;SDS011;41154;45.394;5.734;2024-02-23T04:51:53;3.97;;;1.50;;
55288;SDS011;41154;45.394;5.734;2024-02-23T04:58:06;8.65;;;3.50;;
55288;SDS011;41154;45.394;5.734;2024-02-23T05:00:32;6.00;;;2.63;;
55288;SDS011;41154;45.394;5.734;2024-02-23T05:03:01;37.65;;;3.10;;
55288;SDS011;41154;45.394;5.734;2024-02-23T05:05:31;10.27;;;3.55;;
55288;SDS011;41154;45.394;5.734;2024-02-23T05:07:57;8.60;;;3.15;;
55288;SDS011;41154;45.394;5.734;2024-02-23T05:10:23;5.85;;;2.78;;
55288;SDS011;41154;45.394;5.734;2024-02-23T05:12:49;5.90;;;2.60;;
55288;SDS011;41154;45.394;5.734;2024-02-23T05:15:15;8.00;;;3.08;;
55288;SDS011;41154;45.394;5.734;2024-02-23T05:17:41;13.48;;;3.03;;
55288;SDS011;41154;45.394;5.734;2024-02-23T05:23:00;7.38;;;3.05;;
55288;SDS011;41154;45.394;5.734;2024-02-23T05:25:26;12.38;;;3.28;;
55288;SDS011;41154;45.394;5.734;2024-02-23T05:34:15;10.50;;;2.53;;
55288;SDS011;41154;45.394;5.734;2024-02-23T05:36:40;12.80;;;2.83;;
55288;SDS011;41154;45.394;5.734;2024-02-23T05:39:07;6.22;;;2.40;;
55288;SDS011;41154;45.394;5.734;2024-02-23T05:45:21;26.63;;;4.68;;
55288;SDS011;41154;45.394;5.734;2024-02-23T05:47:47;13.88;;;4.47;;
55288;SDS011;41154;45.394;5.734;2024-02-23T05:50:13;25.80;;;4.53;;
55288;SDS011;41154;45.394;5.734;2024-02-23T05:52:39;48.85;;;5.07;;
55288;SDS011;41154;45.394;5.734;2024-02-23T05:55:04;31.27;;;4.78;;
55288;SDS011;41154;45.394;5.734;2024-02-23T05:57:30;31.95;;;4.82;;
55288;SDS011;41154;45.394;5.734;2024-02-23T06:03:12;15.98;;;3.67;;
55288;SDS011;41154;45.394;5.734;2024-02-23T06:05:38;19.95;;;3.05;;
55288;SDS011;41154;45.394;5.734;2024-02-23T06:08:04;12.43;;;2.70;;
55288;SDS011;41154;45.394;5.734;2024-02-23T06:10:30;11.27;;;2.50;;
55288;SDS011;41154;45.394;5.734;2024-02-23T06:12:55;24.02;;;3.25;;
55288;SDS011;41154;45.394;5.734;2024-02-23T06:18:37;27.45;;;3.50;;
55288;SDS011;41154;45.394;5.734;2024-02-23T06:21:13;18.85;;;2.65;;
55288;SDS011;41154;45.394;5.734;2024-02-23T06:23:42;66.32;;;4.15;;
55288;SDS011;41154;45.394;5.734;2024-02-23T06:32:04;52.25;;;3.90;;
55288;SDS011;41154;45.394;5.734;2024-02-23T06:38:18;23.20;;;4.43;;
55288;SDS011;41154;45.394;5.734;2024-02-23T06:43:40;28.83;;;4.00;;
55288;SDS011;41154;45.394;5.734;2024-02-23T06:46:06;48.40;;;4.63;;
55288;SDS011;41154;45.394;5.734;2024-02-23T06:48:33;27.92;;;3.53;;
55288;SDS011;41154;45.394;5.734;2024-02-23T06:54:46;27.02;;;3.33;;
55288;SDS011;41154;45.394;5.734;2024-02-23T06:57:12;32.33;;;2.90;;
55288;SDS011;41154;45.394;5.734;2024-02-23T06:59:38;24.40;;;3.30;;
55288;SDS011;41154;45.394;5.734;2024-02-23T07:02:04;31.75;;;3.03;;
55288;SDS011;41154;45.394;5.734;2024-02-23T07:04:29;34.20;;;2.50;;
55288;SDS011;41154;45.394;5.734;2024-02-23T07:06:55;58.30;;;3.22;;
55288;SDS011;41154;45.394;5.734;2024-02-23T07:09:21;50.92;;;3.38;;
55288;SDS011;41154;45.394;5.734;2024-02-23T07:11:47;38.42;;;2.60;;
55288;SDS011;41154;45.394;5.734;2024-02-23T07:14:12;43.10;;;2.88;;
55288;SDS011;41154;45.394;5.734;2024-02-23T07:16:42;11.93;;;2.72;;
55288;SDS011;41154;45.394;5.734;2024-02-23T07:19:08;42.13;;;3.45;;
55288;SDS011;41154;45.394;5.734;2024-02-23T07:21:34;24.63;;;3.80;;
55288;SDS011;41154;45.394;5.734;2024-02-23T07:27:23;17.23;;;2.40;;
55288;SDS011;41154;45.394;5.734;2024-02-23T07:32:37;23.52;;;2.28;;
55288;SDS011;41154;45.394;5.734;2024-02-23T07:35:06;39.17;;;2.38;;
55288;SDS011;41154;45.394;5.734;2024-02-23T07:37:32;27.60;;;2.28;;
55288;SDS011;41154;45.394;5.734;2024-02-23T07:39:58;28.95;;;2.50;;
55288;SDS011;41154;45.394;5.734;2024-02-23T07:42:23;15.38;;;1.73;;
55288;SDS011;41154;45.394;5.734;2024-02-23T07:44:49;14.40;;;1.77;;
55288;SDS011;41154;45.394;5.734;2024-02-23T07:47:18;19.50;;;1.83;;
55288;SDS011;41154;45.394;5.734;2024-02-23T07:49:44;27.38;;;1.90;;
55288;SDS011;41154;45.394;5.734;2024-02-23T07:52:10;9.90;;;1.42;;
55288;SDS011;41154;45.394;5.734;2024-02-23T07:54:35;21.98;;;1.60;;
55288;SDS011;41154;45.394;5.734;2024-02-23T07:57:01;24.25;;;2.00;;
55288;SDS011;41154;45.394;5.734;2024-02-23T07:59:45;9.75;;;2.25;;
55288;SDS011;41154;45.394;5.734;2024-02-23T08:05:58;10.57;;;2.05;;
55288;SDS011;41154;45.394;5.734;2024-02-23T08:08:24;12.32;;;1.85;;
55288;SDS011;41154;45.394;5.734;2024-02-23T08:10:52;12.43;;;2.10;;
55288;SDS011;41154;45.394;5.734;2024-02-23T08:13:17;19.85;;;2.90;;
55288;SDS011;41154;45.394;5.734;2024-02-23T08:15:43;11.63;;;2.35;;
55288;SDS011;41154;45.394;5.734;2024-02-23T08:21:56;9.07;;;2.33;;
55288;SDS011;41154;45.394;5.734;2024-02-23T08:24:22;17.02;;;3.17;;
55288;SDS011;41154;45.394;5.734;2024-02-23T08:26:48;4.65;;;2.47;;
55288;SDS011;41154;45.394;5.734;2024-02-23T08:29:14;18.23;;;2.40;;
55288;SDS011;41154;45.394;5.734;2024-02-23T08:38:33;11.48;;;2.45;;
55288;SDS011;41154;45.394;5.734;2024-02-23T08:41:00;12.55;;;2.42;;
55288;SDS011;41154;45.394;5.734;2024-02-23T08:43:26;9.98;;;2.35;;
55288;SDS011;41154;45.394;5.734;2024-02-23T08:45:51;13.18;;;2.80;;
55288;SDS011;41154;45.394;5.734;2024-02-23T08:48:17;4.82;;;2.75;;
55288;SDS011;41154;45.394;5.734;2024-02-23T08:56:19;3.72;;;2.50;;
55288;SDS011;41154;45.394;5.734;2024-02-23T08:58:54;5.53;;;2.70;;
55288;SDS011;41154;45.394;5.734;2024-02-23T09:01:23;10.35;;;3.20;;
55288;SDS011;41154;45.394;5.734;2024-02-23T09:03:58;5.18;;;2.70;;
55288;SDS011;41154;45.394;5.734;2024-02-23T09:06:25;5.90;;;2.85;;
55288;SDS011;41154;45.394;5.734;2024-02-23T09:08:51;5.55;;;2.85;;
55288;SDS011;41154;45.394;5.734;2024-02-23T09:14:23;7.40;;;2.42;;
55288;SDS011;41154;45.394;5.734;2024-02-23T09:16:56;5.47;;;2.50;;
55288;SDS011;41154;45.394;5.734;2024-02-23T09:19:22;3.80;;;2.35;;
55288;SDS011;41154;45.394;5.734;2024-02-23T09:21:48;4.40;;;2.45;;
55288;SDS011;41154;45.394;5.734;2024-02-23T09:28:02;5.38;;;2.28;;
55288;SDS011;41154;45.394;5.734;2024-02-23T09:33:30;3.72;;;1.95;;
55288;SDS011;41154;45.394;5.734;2024-02-23T09:35:56;5.03;;;2.83;;
55288;SDS011;41154;45.394;5.734;2024-02-23T09:38:24;5.32;;;2.47;;
55288;SDS011;41154;45.394;5.734;2024-02-23T09:44:37;3.60;;;2.20;;
55288;SDS011;41154;45.394;5.734;2024-02-23T09:47:05;4.80;;;2.50;;
55288;SDS011;41154;45.394;5.734;2024-02-23T09:49:39;3.53;;;1.92;;
55288;SDS011;41154;45.394;5.734;2024-02-23T09:52:09;2.63;;;1.95;;
55288;SDS011;41154;45.394;5.734;2024-02-23T09:57:57;3.08;;;2.00;;
55288;SDS011;41154;45.394;5.734;2024-02-23T10:00:25;3.85;;;2.20;;
55288;SDS011;41154;45.394;5.734;2024-02-23T10:02:53;6.45;;;2.55;;
55288;SDS011;41154;45.394;5.734;2024-02-23T10:05:20;3.80;;;2.20;;
55288;SDS011;41154;45.394;5.734;2024-02-23T10:07:54;3.28;;;1.65;;
55288;SDS011;41154;45.394;5.734;2024-02-23T10:10:38;2.45;;;1.42;;
55288;SDS011;41154;45.394;5.734;2024-02-23T10:13:04;1.85;;;0.85;;
55288;SDS011;41154;45.394;5.734;2024-02-23T10:15:30;1.63;;;0.85;;
55288;SDS011;41154;45.394;5.734;2024-02-23T10:17:59;1.40;;;1.00;;
55288;SDS011;41154;45.394;5.734;2024-02-23T10:20:25;1.55;;;1.13;;
55288;SDS011;41154;45.394;5.734;2024-02-23T10:22:51;2.38;;;1.20;;
55288;SDS011;41154;45.394;5.734;2024-02-23T10:25:18;3.83;;;0.80;;
55288;SDS011;41154;45.394;5.734;2024-02-23T10:27:44;2.70;;;0.60;;
55288;SDS011;41154;45.394;5.734;2024-02-23T10:38:02;1.17;;;0.30;;
55288;SDS011;41154;45.394;5.734;2024-02-23T10:40:30;1.25;;;0.30;;
55288;SDS011;41154;45.394;5.734;2024-02-23T10:42:59;0.95;;;0.50;;
55288;SDS011;41154;45.394;5.734;2024-02-23T10:55:28;3.17;;;0.80;;
55288;SDS011;41154;45.394;5.734;2024-02-23T10:57:58;0.80;;;0.40;;
55288;SDS011;41154;45.394;5.734;2024-02-23T11:00:24;1.92;;;0.45;;
55288;SDS011;41154;45.394;5.734;2024-02-23T11:02:51;1.60;;;0.43;;
55288;SDS011;41154;45.394;5.734;2024-02-23T11:05:18;1.45;;;0.40;;
55288;SDS011;41154;45.394;5.734;2024-02-23T11:07:47;2.53;;;0.70;;
55288;SDS011;41154;45.394;5.734;2024-02-23T11:10:17;2.95;;;0.80;;
55288;SDS011;41154;45.394;5.734;2024-02-23T11:12:43;1.85;;;0.38;;
55288;SDS011;41154;45.394;5.734;2024-02-23T11:15:09;1.55;;;0.30;;
55288;SDS011;41154;45.394;5.734;2024-02-23T11:17:52;2.28;;;0.60;;
55288;SDS011;41154;45.394;5.734;2024-02-23T11:20:18;3.35;;;0.57;;
55288;SDS011;41154;45.394;5.734;2024-02-23T11:22:43;1.48;;;0.63;;
55288;SDS011;41154;45.394;5.734;2024-02-23T11:25:09;1.45;;;0.50;;
55288;SDS011;41154;45.394;5.734;2024-02-23T11:27:37;1.92;;;0.80;;
55288;SDS011;41154;45.394;5.734;2024-02-23T11:30:08;2.35;;;0.57;;
55288;SDS011;41154;45.394;5.734;2024-02-23T11:32:38;3.08;;;0.70;;
55288;SDS011;41154;45.394;5.734;2024-02-23T11:35:20;3.80;;;0.98;;
55288;SDS011;41154;45.394;5.734;2024-02-23T11:37:57;2.25;;;0.70;;
55288;SDS011;41154;45.394;5.734;2024-02-23T11:41:06;6.35;;;0.70;;
55288;SDS011;41154;45.394;5.734;2024-02-23T11:43:34;2.63;;;0.70;;
55288;SDS011;41154;45.394;5.734;2024-02-23T11:55:40;2.15;;;1.55;;
55288;SDS011;41154;45.394;5.734;2024-02-23T11:58:06;3.10;;;1.13;;
55288;SDS011;41154;45.394;5.734;2024-02-23T12:04:19;3.05;;;0.98;;
55288;SDS011;41154;45.394;5.734;2024-02-23T12:06:45;6.38;;;1.30;;
55288;SDS011;41154;45.394;5.734;2024-02-23T12:09:11;3.22;;;0.60;;
55288;SDS011;41154;45.394;5.734;2024-02-23T12:11:38;2.17;;;0.80;;
55288;SDS011;41154;45.394;5.734;2024-02-23T12:14:04;1.33;;;0.40;;
55288;SDS011;41154;45.394;5.734;2024-02-23T12:16:34;2.47;;;0.55;;
55288;SDS011;41154;45.394;5.734;2024-02-23T12:19:03;2.17;;;0.80;;
55288;SDS011;41154;45.394;5.734;2024-02-23T12:27:43;1.40;;;0.63;;
55288;SDS011;41154;45.394;5.734;2024-02-23T12:30:27;1.70;;;0.70;;
55288;SDS011;41154;45.394;5.734;2024-02-23T12:35:49;4.20;;;0.60;;
55288;SDS011;41154;45.394;5.734;2024-02-23T12:38:14;1.45;;;0.80;;
55288;SDS011;41154;45.394;5.734;2024-02-23T12:44:28;3.80;;;1.10;;
55288;SDS011;41154;45.394;5.734;2024-02-23T12:46:53;2.75;;;0.40;;
55288;SDS011;41154;45.394;5.734;2024-02-23T12:49:19;1.58;;;0.30;;
55288;SDS011;41154;45.394;5.734;2024-02-23T12:51:45;0.73;;;0.30;;
55288;SDS011;41154;45.394;5.734;2024-02-23T12:54:10;1.40;;;0.90;;
55288;SDS011;41154;45.394;5.734;2024-02-23T12:56:36;0.73;;;0.55;;
55288;SDS011;41154;45.394;5.734;2024-02-23T12:59:02;1.27;;;0.50;;
55288;SDS011;41154;45.394;5.734;2024-02-23T13:05:15;1.63;;;0.52;;
55288;SDS011;41154;45.394;5.734;2024-02-23T13:07:41;3.03;;;0.25;;
55288;SDS011;41154;45.394;5.734;2024-02-23T13:10:25;1.75;;;0.47;;
55288;SDS011;41154;45.394;5.734;2024-02-23T13:12:51;2.60;;;0.65;;
55288;SDS011;41154;45.394;5.734;2024-02-23T13:15:17;1.05;;;0.50;;
55288;SDS011;41154;45.394;5.734;2024-02-23T13:17:43;1.77;;;0.63;;
55288;SDS011;41154;45.394;5.734;2024-02-23T13:20:09;0.80;;;0.30;;
55288;SDS011;41154;45.394;5.734;2024-02-23T13:22:38;1.30;;;0.50;;
55288;SDS011;41154;45.394;5.734;2024-02-23T13:28:01;1.23;;;0.50;;
55288;SDS011;41154;45.394;5.734;2024-02-23T13:30:28;0.93;;;0.50;;
55288;SDS011;41154;45.394;5.734;2024-02-23T13:32:53;1.02;;;0.30;;
55288;SDS011;41154;45.394;5.734;2024-02-23T13:35:19;1.25;;;0.40;;
55288;SDS011;41154;45.394;5.734;2024-02-23T13:41:11;0.47;;;0.30;;
55288;SDS011;41154;45.394;5.734;2024-02-23T13:43:47;1.00;;;0.40;;
55288;SDS011;41154;45.394;5.734;2024-02-23T13:52:07;1.02;;;0.50;;
55288;SDS011;41154;45.394;5.734;2024-02-23T13:54:42;0.70;;;0.25;;
55288;SDS011;41154;45.394;5.734;2024-02-23T13:57:08;0.95;;;0.30;;
55288;SDS011;41154;45.394;5.734;2024-02-23T13:59:34;1.25;;;0.50;;
55288;SDS011;41154;45.394;5.734;2024-02-23T14:02:00;1.00;;;0.32;;
55288;SDS011;41154;45.394;5.734;2024-02-23T14:07:35;2.38;;;0.47;;
55288;SDS011;41154;45.394;5.734;2024-02-23T14:10:01;2.60;;;0.60;;
55288;SDS011;41154;45.394;5.734;2024-02-23T14:12:28;3.33;;;0.70;;
55288;SDS011;41154;45.394;5.734;2024-02-23T14:18:42;0.98;;;0.20;;
55288;SDS011;41154;45.394;5.734;2024-02-23T14:21:09;0.88;;;0.30;;
55288;SDS011;41154;45.394;5.734;2024-02-23T14:27:00;1.42;;;0.50;;
55288;SDS011;41154;45.394;5.734;2024-02-23T14:29:26;1.50;;;0.30;;
55288;SDS011;41154;45.394;5.734;2024-02-23T14:38:15;1.33;;;0.50;;
55288;SDS011;41154;45.394;5.734;2024-02-23T14:40:41;1.58;;;0.30;;
55288;SDS011;41154;45.394;5.734;2024-02-23T14:43:07;0.35;;;0.22;;
55288;SDS011;41154;45.394;5.734;2024-02-23T14:45:35;0.65;;;0.30;;
55288;SDS011;41154;45.394;5.734;2024-02-23T14:48:02;1.52;;;0.40;;
55288;SDS011;41154;45.394;5.734;2024-02-23T14:53:50;1.02;;;0.40;;
55288;SDS011;41154;45.394;5.734;2024-02-23T14:56:15;0.50;;;0.30;;
55288;SDS011;41154;45.394;5.734;2024-02-23T14:58:41;1.73;;;0.32;;
55288;SDS011;41154;45.394;5.734;2024-02-23T15:01:06;2.17;;;0.80;;
55288;SDS011;41154;45.394;5.734;2024-02-23T15:03:32;3.40;;;0.80;;
55288;SDS011;41154;45.394;5.734;2024-02-23T15:05:59;0.43;;;0.40;;
55288;SDS011;41154;45.394;5.734;2024-02-23T15:08:26;1.90;;;0.50;;
55288;SDS011;41154;45.394;5.734;2024-02-23T15:16:56;1.85;;;0.40;;
55288;SDS011;41154;45.394;5.734;2024-02-23T15:19:21;1.90;;;0.30;;
55288;SDS011;41154;45.394;5.734;2024-02-23T15:21:48;0.60;;;0.30;;
55288;SDS011;41154;45.394;5.734;2024-02-23T15:28:02;1.23;;;0.50;;
55288;SDS011;41154;45.394;5.734;2024-02-23T15:30:28;0.85;;;0.32;;
55288;SDS011;41154;45.394;5.734;2024-02-23T15:32:54;0.75;;;0.30;;
55288;SDS011;41154;45.394;5.734;2024-02-23T15:35:20;1.20;;;0.40;;
55288;SDS011;41154;45.394;5.734;2024-02-23T15:37:45;2.72;;;0.90;;
55288;SDS011;41154;45.394;5.734;2024-02-23T15:40:11;2.88;;;0.50;;
55288;SDS011;41154;45.394;5.734;2024-02-23T15:42:37;4.18;;;0.65;;
55288;SDS011;41154;45.394;5.734;2024-02-23T15:45:03;1.40;;;0.60;;
55288;SDS011;41154;45.394;5.734;2024-02-23T15:47:31;2.88;;;0.70;;
55288;SDS011;41154;45.394;5.734;2024-02-23T15:49:58;1.42;;;0.60;;
55288;SDS011;41154;45.394;5.734;2024-02-23T15:52:25;1.35;;;0.50;;
55288;SDS011;41154;45.394;5.734;2024-02-23T15:54:52;2.05;;;0.70;;
55288;SDS011;41154;45.394;5.734;2024-02-23T15:57:18;3.85;;;0.60;;
55288;SDS011;41154;45.394;5.734;2024-02-23T15:59:46;1.20;;;0.50;;
55288;SDS011;41154;45.394;5.734;2024-02-23T16:02:12;2.38;;;0.60;;
55288;SDS011;41154;45.394;5.734;2024-02-23T16:04:38;1.80;;;0.50;;
55288;SDS011;41154;45.394;5.734;2024-02-23T16:07:03;1.00;;;0.40;;
55288;SDS011;41154;45.394;5.734;2024-02-23T16:09:31;1.50;;;0.70;;
55288;SDS011;41154;45.394;5.734;2024-02-23T16:15:10;2.85;;;1.15;;
55288;SDS011;41154;45.394;5.734;2024-02-23T16:17:36;5.05;;;2.42;;
55288;SDS011;41154;45.394;5.734;2024-02-23T16:20:02;5.13;;;2.38;;
55288;SDS011;41154;45.394;5.734;2024-02-23T16:22:28;3.70;;;1.33;;
55288;SDS011;41154;45.394;5.734;2024-02-23T16:24:54;1.17;;;0.75;;
55288;SDS011;41154;45.394;5.734;2024-02-23T16:34:54;1.88;;;0.80;;
55288;SDS011;41154;45.394;5.734;2024-02-23T16:37:20;1.20;;;0.60;;
55288;SDS011;41154;45.394;5.734;2024-02-23T16:39:51;2.63;;;0.63;;
55288;SDS011;41154;45.394;5.734;2024-02-23T16:42:26;1.48;;;0.50;;
55288;SDS011;41154;45.394;5.734;2024-02-23T16:45:37;1.27;;;0.30;;
55288;SDS011;41154;45.394;5.734;2024-02-23T16:48:03;1.42;;;0.40;;
55288;SDS011;41154;45.394;5.734;2024-02-23T16:50:36;3.83;;;1.05;;
55288;SDS011;41154;45.394;5.734;2024-02-23T16:56:20;2.88;;;1.30;;
55288;SDS011;41154;45.394;5.734;2024-02-23T16:58:45;1.35;;;0.90;;
55288;SDS011;41154;45.394;5.734;2024-02-23T17:08:02;2.92;;;0.70;;
55288;SDS011;41154;45.394;5.734;2024-02-23T17:10:28;1.52;;;0.85;;
55288;SDS011;41154;45.394;5.734;2024-02-23T17:13:09;0.75;;;0.60;;
55288;SDS011;41154;45.394;5.734;2024-02-23T17:15:50;3.22;;;1.20;;
55288;SDS011;41154;45.394;5.734;2024-02-23T17:18:15;2.85;;;1.48;;
55288;SDS011;41154;45.394;5.734;2024-02-23T17:20:41;2.20;;;0.90;;
55288;SDS011;41154;45.394;5.734;2024-02-23T17:23:07;7.15;;;1.67;;
55288;SDS011;41154;45.394;5.734;2024-02-23T17:25:33;2.72;;;1.55;;
55288;SDS011;41154;45.394;5.734;2024-02-23T17:31:15;2.80;;;0.70;;
55288;SDS011;41154;45.394;5.734;2024-02-23T17:33:40;0.95;;;0.63;;
55288;SDS011;41154;45.394;5.734;2024-02-23T17:36:06;1.95;;;0.85;;
55288;SDS011;41154;45.394;5.734;2024-02-23T17:41:36;4.13;;;1.50;;
55288;SDS011;41154;45.394;5.734;2024-02-23T17:44:02;1.70;;;1.08;;
55288;SDS011;41154;45.394;5.734;2024-02-23T17:46:29;12.70;;;9.10;;
55288;SDS011;41154;45.394;5.734;2024-02-23T17:48:55;4.78;;;2.50;;
55288;SDS011;41154;45.394;5.734;2024-02-23T17:51:20;4.68;;;1.67;;
55288;SDS011;41154;45.394;5.734;2024-02-23T17:53:47;2.75;;;0.60;;
55288;SDS011;41154;45.394;5.734;2024-02-23T17:56:12;4.32;;;3.75;;
55288;SDS011;41154;45.394;5.734;2024-02-23T17:58:38;1.05;;;0.60;;
55288;SDS011;41154;45.394;5.734;2024-02-23T18:03:50;3.42;;;0.90;;
55288;SDS011;41154;45.394;5.734;2024-02-23T18:10:03;2.38;;;0.80;;
55288;SDS011;41154;45.394;5.734;2024-02-23T18:12:29;1.35;;;0.80;;
55288;SDS011;41154;45.394;5.734;2024-02-23T18:14:55;4.43;;;3.70;;
55288;SDS011;41154;45.394;5.734;2024-02-23T18:17:21;3.42;;;1.73;;
55288;SDS011;41154;45.394;5.734;2024-02-23T18:23:10;1.50;;;1.00;;
55288;SDS011;41154;45.394;5.734;2024-02-23T18:25:35;2.10;;;0.98;;
55288;SDS011;41154;45.394;5.734;2024-02-23T18:28:01;2.53;;;1.50;;